createdAt,value
2022-11-21T00:01:44.371Z,80.64
2022-11-21T00:04:13.839Z,80.68
2022-11-21T00:06:41.953Z,80.92
2022-11-21T00:09:10.079Z,80.82
2022-11-21T00:11:38.162Z,80.69
2022-11-21T00:14:06.310Z,80.83
2022-11-21T00:16:34.398Z,81.07
2022-11-21T00:19:04.528Z,81.17
2022-11-21T00:21:33.983Z,81.29
2022-11-21T00:24:02.087Z,81.59
2022-11-21T00:26:30.187Z,81.64
2022-11-21T00:28:58.303Z,81.38
2022-11-21T00:31:26.571Z,81.54
2022-11-21T00:33:54.678Z,81.63
2022-11-21T00:36:22.783Z,81.51
2022-11-21T00:38:52.604Z,81.39
2022-11-21T00:41:20.734Z,81.53
2022-11-21T00:43:48.828Z,81.48
2022-11-21T00:46:16.925Z,81.42
2022-11-21T00:48:45.080Z,81.36
2022-11-21T00:51:13.220Z,81.46
2022-11-21T00:53:41.635Z,81.57
2022-11-21T00:56:11.139Z,81.53
2022-11-21T00:58:39.244Z,81.73
2022-11-21T01:01:11.177Z,82.07
2022-11-21T01:03:39.907Z,82.23
2022-11-21T01:06:10.625Z,82.07
2022-11-21T01:08:41.247Z,82.12
2022-11-21T01:11:13.573Z,82.39
2022-11-21T01:13:42.382Z,82.56
2022-11-21T01:16:13.721Z,82.59
2022-11-21T01:18:42.406Z,82.55
2022-11-21T01:21:16.498Z,82.21
2022-11-21T01:23:45.026Z,82.35
2022-11-21T01:26:16.499Z,82.79
2022-11-21T01:28:44.748Z,82.72
2022-11-21T01:31:16.290Z,82.20
2022-11-21T01:33:45.062Z,81.79
2022-11-21T01:36:15.590Z,82.06
2022-11-21T01:38:46.408Z,82.28
2022-11-21T01:41:19.421Z,82.39
2022-11-21T01:43:48.692Z,82.85
2022-11-21T01:46:19.431Z,83.10
2022-11-21T01:48:56.280Z,83.28
2022-11-21T01:51:32.136Z,84.00
2022-11-21T01:54:09.194Z,83.88
2022-11-21T01:56:47.805Z,83.60
2022-11-21T01:59:22.993Z,83.91
2022-11-21T02:01:56.489Z,84.00
2022-11-21T02:04:29.795Z,84.58
2022-11-21T02:06:59.185Z,84.83
2022-11-21T02:09:27.790Z,84.69
2022-11-21T02:12:03.123Z,84.96
2022-11-21T02:14:32.767Z,85.42
2022-11-21T02:17:08.491Z,85.88
2022-11-21T02:19:53.472Z,86.17
2022-11-21T02:22:35.000Z,86.12
2022-11-21T02:25:11.054Z,86.30
2022-11-21T02:27:39.812Z,86.30
2022-11-21T02:30:11.110Z,86.47
2022-11-21T02:32:42.066Z,86.61
2022-11-21T02:35:10.586Z,86.66
2022-11-21T02:37:39.064Z,86.82
2022-11-21T02:40:14.725Z,87.12
2022-11-21T02:42:52.854Z,87.11
2022-11-21T02:45:28.065Z,87.05
2022-11-21T02:48:03.647Z,87.38
2022-11-21T02:50:35.368Z,87.40
2022-11-21T02:53:03.777Z,87.52
2022-11-21T02:55:33.429Z,87.52
2022-11-21T02:58:04.896Z,87.65
2022-11-21T03:00:34.925Z,87.53
2022-11-21T03:03:03.267Z,87.67
2022-11-21T03:05:32.036Z,87.70
2022-11-21T03:08:00.193Z,87.56
2022-11-21T03:10:28.487Z,86.92
2022-11-21T03:13:01.811Z,86.80
2022-11-21T03:15:33.339Z,85.46
2022-11-21T03:18:03.596Z,84.09
2022-11-21T03:20:32.299Z,83.50
2022-11-21T03:23:00.547Z,83.57
2022-11-21T03:25:28.829Z,84.27
2022-11-21T03:27:58.327Z,84.35
2022-11-21T03:30:28.004Z,84.90
2022-11-21T03:32:57.089Z,85.23
2022-11-21T03:35:25.307Z,84.53
2022-11-21T03:37:53.526Z,84.25
2022-11-21T03:40:21.681Z,83.27
2022-11-21T03:42:49.805Z,83.29
2022-11-21T03:45:20.267Z,83.47
2022-11-21T03:47:48.395Z,82.90
2022-11-21T03:50:18.998Z,82.80
2022-11-21T03:52:47.102Z,81.99
2022-11-21T03:55:15.503Z,81.03
2022-11-21T03:57:43.578Z,81.63
2022-11-21T04:00:14.155Z,82.12
2022-11-21T04:02:43.665Z,81.78
2022-11-21T04:05:11.788Z,81.92
2022-11-21T04:07:39.951Z,81.84
2022-11-21T04:10:09.068Z,81.40
2022-11-21T04:12:37.210Z,81.69
2022-11-21T04:15:12.090Z,81.77
2022-11-21T04:17:42.785Z,81.95
2022-11-21T04:20:12.605Z,82.19
2022-11-21T04:22:40.695Z,82.29
2022-11-21T04:25:09.605Z,82.61
2022-11-21T04:27:37.723Z,82.06
2022-11-21T04:30:07.466Z,82.26
2022-11-21T04:32:35.567Z,82.74
2022-11-21T04:35:06.064Z,82.93
2022-11-21T04:37:34.466Z,82.55
2022-11-21T04:40:02.669Z,82.07
2022-11-21T04:42:30.758Z,82.46
2022-11-21T04:44:58.877Z,82.41
2022-11-21T04:47:26.998Z,82.30
2022-11-21T04:49:55.107Z,82.11
2022-11-21T04:52:24.691Z,82.41
2022-11-21T04:54:52.777Z,81.88
2022-11-21T04:57:20.892Z,81.73
2022-11-21T04:59:48.989Z,82.14
2022-11-21T05:02:17.238Z,82.53
2022-11-21T05:04:45.365Z,82.52
2022-11-21T05:07:14.006Z,82.80
2022-11-21T05:09:43.560Z,83.68
2022-11-21T05:12:29.545Z,83.49
2022-11-21T05:14:57.865Z,82.42
2022-11-21T05:17:26.050Z,82.21
2022-11-21T05:19:54.169Z,82.73
2022-11-21T05:22:22.559Z,83.26
2022-11-21T05:24:52.003Z,83.58
2022-11-21T05:27:20.152Z,83.47
2022-11-21T05:29:48.271Z,83.39
2022-11-21T05:32:17.381Z,83.82
2022-11-21T05:34:45.541Z,83.89
2022-11-21T05:37:13.645Z,84.00
2022-11-21T05:39:41.740Z,84.14
2022-11-21T05:42:11.252Z,84.24
2022-11-21T05:44:38.377Z,84.43
2022-11-21T05:47:06.516Z,84.46
2022-11-21T05:49:34.588Z,84.76
2022-11-21T05:52:02.722Z,85.10
2022-11-21T05:54:30.935Z,85.29
2022-11-21T05:56:59.177Z,85.40
2022-11-21T05:59:28.643Z,85.25
2022-11-21T06:02:14.360Z,85.04
2022-11-21T06:04:42.443Z,83.30
2022-11-21T06:07:10.585Z,83.15
2022-11-21T06:09:38.693Z,82.90
2022-11-21T06:12:07.131Z,82.32
2022-11-21T06:14:36.588Z,82.03
2022-11-21T06:17:04.699Z,82.41
2022-11-21T06:19:32.852Z,82.32
2022-11-21T06:22:00.998Z,82.21
2022-11-21T06:24:29.185Z,82.05
2022-11-21T06:26:58.486Z,81.96
2022-11-21T06:29:26.603Z,81.82
2022-11-21T06:31:56.514Z,81.97
2022-11-21T06:34:27.118Z,82.45
2022-11-21T06:36:55.655Z,81.79
2022-11-21T06:39:23.775Z,81.81
2022-11-21T06:41:51.885Z,82.17
2022-11-21T06:44:20.148Z,82.33
2022-11-21T06:46:51.179Z,82.37
2022-11-21T06:49:22.098Z,81.89
2022-11-21T06:51:50.359Z,82.14
2022-11-21T06:54:18.424Z,82.60
2022-11-21T06:56:46.607Z,82.44
2022-11-21T06:59:14.776Z,82.55
2022-11-21T07:01:42.918Z,83.15
2022-11-21T07:04:11.072Z,83.21
2022-11-21T07:06:40.676Z,83.25
2022-11-21T07:09:38.151Z,83.60
2022-11-21T07:12:17.052Z,82.90
2022-11-21T07:14:44.180Z,82.75
2022-11-21T07:17:12.869Z,83.04
2022-11-21T07:19:41.714Z,83.36
2022-11-21T07:22:11.298Z,83.57
2022-11-21T07:24:39.710Z,83.56
2022-11-21T07:27:07.826Z,83.41
2022-11-21T07:29:35.952Z,82.64
2022-11-21T07:32:04.040Z,81.33
2022-11-21T07:34:32.195Z,81.41
2022-11-21T07:37:00.289Z,81.27
2022-11-21T07:39:29.979Z,81.31
2022-11-21T07:41:58.300Z,81.31
2022-11-21T07:44:26.412Z,80.50
2022-11-21T07:46:56.339Z,80.03
2022-11-21T07:49:24.489Z,79.33
2022-11-21T07:51:52.667Z,79.01
2022-11-21T07:54:20.818Z,79.56
2022-11-21T07:56:50.268Z,79.36
2022-11-21T07:59:19.216Z,79.74
2022-11-21T08:01:47.763Z,80.39
2022-11-21T08:04:15.936Z,80.53
2022-11-21T08:06:44.059Z,79.68
2022-11-21T08:09:12.138Z,80.18
2022-11-21T08:11:40.265Z,80.65
2022-11-21T08:14:09.745Z,80.26
2022-11-21T08:16:37.875Z,79.89
2022-11-21T08:19:06.640Z,79.95
2022-11-21T08:21:34.758Z,79.13
2022-11-21T08:24:03.041Z,79.21
2022-11-21T08:26:31.188Z,79.36
2022-11-21T08:29:00.119Z,79.12
2022-11-21T08:31:29.771Z,78.70
2022-11-21T08:33:58.083Z,78.41
2022-11-21T08:36:26.283Z,78.59
2022-11-21T08:38:54.439Z,78.10
2022-11-21T08:41:40.656Z,77.97
2022-11-21T08:44:13.915Z,76.28
2022-11-21T08:46:43.797Z,76.97
2022-11-21T08:49:12.987Z,77.88
2022-11-21T08:51:41.109Z,78.54
2022-11-21T08:54:10.568Z,78.08
2022-11-21T08:56:38.662Z,77.94
2022-11-21T08:59:06.734Z,78.29
2022-11-21T09:01:34.926Z,78.54
2022-11-21T09:04:04.579Z,78.25
2022-11-21T09:06:33.127Z,77.47
2022-11-21T09:09:01.705Z,77.63
2022-11-21T09:11:29.862Z,77.55
2022-11-21T09:14:17.217Z,77.61
2022-11-21T09:17:02.858Z,77.01
2022-11-21T09:19:32.379Z,76.08
2022-11-21T09:22:00.457Z,75.19
2022-11-21T09:24:28.671Z,75.10
2022-11-21T09:26:56.811Z,74.66
2022-11-21T09:29:25.036Z,74.08
2022-11-21T09:31:53.199Z,74.03
2022-11-21T09:34:21.272Z,73.92
2022-11-21T09:36:50.668Z,73.49
2022-11-21T09:39:21.039Z,73.54
2022-11-21T09:42:05.961Z,73.65
2022-11-21T09:45:05.222Z,73.35
2022-11-21T09:47:37.905Z,73.50
2022-11-21T09:50:25.478Z,73.20
2022-11-21T09:53:02.718Z,73.30
2022-11-21T09:55:42.730Z,73.46
2022-11-21T09:58:23.118Z,73.10
2022-11-21T10:00:52.946Z,73.25
2022-11-21T10:03:26.488Z,73.56
2022-11-21T10:06:01.324Z,73.07
2022-11-21T10:08:48.446Z,73.61
2022-11-21T10:11:31.630Z,73.55
2022-11-21T10:14:19.265Z,72.69
2022-11-21T10:17:00.922Z,72.92
2022-11-21T10:20:00.722Z,72.89
2022-11-21T10:22:54.772Z,72.68
2022-11-21T10:25:30.583Z,72.68
2022-11-21T10:28:07.646Z,72.80
2022-11-21T10:30:37.779Z,72.60
2022-11-21T10:33:12.740Z,72.39
2022-11-21T10:35:46.836Z,71.88
2022-11-21T10:38:25.109Z,70.42
2022-11-21T10:41:03.769Z,70.32
2022-11-21T10:44:01.804Z,70.25
2022-11-21T10:46:29.840Z,69.98
2022-11-21T10:49:01.395Z,69.94
2022-11-21T10:51:44.215Z,70.10
2022-11-21T10:54:34.060Z,70.14
2022-11-21T10:57:14.290Z,69.43
2022-11-21T10:59:42.633Z,69.64
2022-11-21T11:02:25.970Z,68.87
2022-11-21T11:05:21.596Z,69.28
2022-11-21T11:08:06.736Z,68.96
2022-11-21T11:10:38.216Z,69.29
2022-11-21T11:13:51.692Z,69.46
2022-11-21T11:16:22.487Z,69.19
2022-11-21T11:18:59.521Z,69.82
2022-11-21T11:21:30.918Z,69.83
2022-11-21T11:24:21.934Z,70.29
2022-11-21T11:26:59.738Z,70.35
2022-11-21T11:29:32.124Z,71.38
2022-11-21T11:32:06.066Z,70.68
2022-11-21T11:34:41.328Z,70.74
2022-11-21T11:37:20.274Z,70.77
2022-11-21T11:40:02.357Z,71.32
2022-11-21T11:43:18.970Z,70.49
2022-11-21T11:46:35.016Z,69.03
2022-11-21T11:49:20.245Z,69.38
2022-11-21T11:51:55.402Z,69.48
2022-11-21T11:54:29.158Z,70.15
2022-11-21T11:56:58.617Z,70.66
2022-11-21T11:59:34.989Z,71.06
2022-11-21T12:02:17.554Z,70.37
2022-11-21T12:04:53.385Z,69.72
2022-11-21T12:10:24.707Z,72.22
2022-11-21T12:13:03.315Z,72.95
2022-11-21T12:15:52.785Z,72.52
2022-11-21T12:18:33.710Z,73.30
2022-11-21T12:21:12.333Z,73.47
2022-11-21T12:23:51.432Z,74.07
2022-11-21T12:26:36.495Z,73.91
2022-11-21T12:29:24.895Z,72.74
2022-11-21T12:32:25.415Z,72.92
2022-11-21T12:35:27.117Z,73.66
2022-11-21T12:38:11.823Z,73.93
2022-11-21T12:40:59.137Z,74.12
2022-11-21T12:43:43.123Z,74.39
2022-11-21T12:46:25.764Z,74.86
2022-11-21T12:49:26.921Z,74.59
2022-11-21T12:52:32.424Z,74.79
2022-11-21T12:55:16.010Z,75.07
2022-11-21T12:58:04.934Z,74.78
2022-11-21T13:00:49.930Z,74.23
2022-11-21T13:03:43.896Z,74.74
2022-11-21T13:06:21.581Z,75.12
2022-11-21T13:08:54.366Z,75.49
2022-11-21T13:11:56.054Z,75.27
2022-11-21T13:14:42.801Z,75.13
2022-11-21T13:17:37.946Z,75.18
2022-11-21T13:20:18.827Z,75.08
2022-11-21T13:23:28.713Z,75.21
2022-11-21T13:25:58.130Z,75.19
2022-11-21T13:28:49.554Z,74.59
2022-11-21T13:31:32.988Z,74.90
2022-11-21T13:34:02.088Z,75.61
2022-11-21T13:36:43.531Z,75.75
2022-11-21T13:39:39.539Z,75.80
2022-11-21T13:42:35.235Z,75.52
2022-11-21T13:45:49.386Z,75.40
2022-11-21T13:49:06.327Z,74.56
2022-11-21T13:51:53.536Z,75.09
2022-11-21T13:54:54.949Z,74.00
2022-11-21T13:57:43.716Z,71.46
2022-11-21T14:00:38.444Z,72.55
2022-11-21T14:03:45.588Z,72.86
2022-11-21T14:06:37.247Z,72.59
2022-11-21T14:09:22.274Z,73.29
2022-11-21T14:11:54.214Z,74.08
2022-11-21T14:14:34.548Z,74.75
2022-11-21T14:17:37.810Z,75.79
2022-11-21T14:20:18.687Z,76.21
2022-11-21T14:22:57.107Z,76.09
2022-11-21T14:25:37.479Z,75.74
2022-11-21T14:28:11.272Z,76.17
2022-11-21T14:30:44.140Z,75.96
2022-11-21T14:33:27.419Z,76.44
2022-11-21T14:36:01.090Z,75.81
2022-11-21T14:38:31.987Z,76.30
2022-11-21T14:41:32.588Z,76.96
2022-11-21T14:44:20.584Z,77.19
2022-11-21T14:46:51.730Z,76.89
2022-11-21T14:49:29.389Z,77.23
2022-11-21T14:52:22.062Z,77.39
2022-11-21T14:55:27.881Z,77.41
2022-11-21T14:57:45.466Z,77.43
2022-11-21T15:00:51.541Z,77.64
2022-11-21T15:03:22.351Z,78.01
2022-11-21T15:06:05.817Z,78.69
2022-11-21T15:09:45.987Z,78.99
2022-11-21T15:11:31.048Z,79.29
2022-11-21T15:16:58.782Z,79.49
2022-11-21T15:19:30.552Z,79.45
2022-11-21T15:22:02.478Z,79.74
2022-11-21T15:24:42.376Z,79.82
2022-11-21T15:27:33.305Z,80.21
2022-11-21T15:30:20.458Z,80.08
2022-11-21T15:33:07.447Z,79.12
2022-11-21T15:35:50.473Z,79.38
2022-11-21T15:38:26.689Z,79.46
2022-11-21T15:41:04.777Z,79.68
2022-11-21T15:43:43.607Z,80.34
2022-11-21T15:46:18.038Z,80.46
2022-11-21T15:48:48.579Z,80.69
2022-11-21T15:51:27.227Z,81.03
2022-11-21T15:54:11.775Z,80.72
2022-11-21T15:56:40.386Z,80.64
2022-11-21T15:57:14.936Z,79.64
2022-11-21T15:59:08.705Z,80.89
2022-11-21T16:01:37.875Z,81.22
2022-11-21T16:04:09.045Z,80.97
2022-11-21T16:06:38.775Z,80.69
2022-11-21T16:09:07.217Z,80.78
2022-11-21T16:11:39.174Z,81.22
2022-11-21T16:14:09.280Z,81.37
2022-11-21T16:16:43.244Z,81.60
2022-11-21T16:19:13.418Z,82.15
2022-11-21T16:21:43.412Z,82.52
2022-11-21T16:24:11.558Z,82.85
2022-11-21T16:26:39.692Z,82.45
2022-11-21T16:29:07.755Z,82.59
2022-11-21T16:31:35.847Z,82.76
2022-11-21T16:34:04.118Z,82.89
2022-11-21T16:36:33.442Z,82.99
2022-11-21T16:39:08.738Z,82.84
2022-11-21T16:41:40.950Z,83.25
2022-11-21T16:44:14.844Z,83.68
2022-11-21T16:46:45.128Z,83.93
2022-11-21T16:49:13.804Z,84.37
2022-11-21T16:51:42.038Z,84.94
2022-11-21T16:54:11.487Z,85.42
2022-11-21T16:56:39.585Z,85.92
2022-11-21T16:59:07.697Z,86.39
2022-11-21T17:01:35.930Z,86.41
2022-11-21T17:04:04.112Z,86.76
2022-11-21T17:06:32.960Z,87.21
2022-11-21T17:09:02.232Z,87.44
2022-11-21T17:11:32.420Z,87.53
2022-11-21T17:14:02.792Z,87.88
2022-11-21T17:16:32.031Z,87.69
2022-11-21T17:19:02.692Z,87.83
2022-11-21T17:21:31.990Z,87.94
2022-11-21T17:24:00.457Z,87.93
2022-11-21T17:26:31.307Z,87.82
2022-11-21T17:29:03.320Z,88.06
2022-11-21T17:31:32.141Z,88.06
2022-11-21T17:34:01.772Z,88.22
2022-11-21T17:36:34.365Z,88.38
2022-11-21T17:39:02.822Z,88.55
2022-11-21T17:41:32.295Z,88.40
2022-11-21T17:44:00.919Z,88.57
2022-11-21T17:46:29.166Z,88.65
2022-11-21T17:48:59.306Z,88.97
2022-11-21T17:51:30.398Z,88.90
2022-11-21T17:53:59.393Z,89.02
2022-11-21T17:56:32.264Z,89.03
2022-11-21T17:59:00.918Z,89.22
2022-11-21T18:01:29.509Z,89.29
2022-11-21T18:03:59.802Z,89.44
2022-11-21T18:06:29.715Z,89.30
2022-11-21T18:08:58.494Z,88.88
2022-11-21T18:11:37.851Z,88.70
2022-11-21T18:14:09.241Z,88.58
2022-11-21T18:16:39.236Z,87.38
2022-11-21T18:19:08.477Z,87.34
2022-11-21T18:21:36.910Z,87.07
2022-11-21T18:24:05.492Z,87.19
2022-11-21T18:26:37.491Z,87.13
2022-11-21T18:31:56.229Z,87.05
2022-11-21T18:34:24.386Z,87.27
2022-11-21T18:36:52.508Z,87.33
2022-11-21T18:39:20.980Z,87.38
2022-11-21T18:41:50.924Z,87.27
2022-11-21T18:44:22.165Z,87.41
2022-11-21T18:46:51.322Z,87.52
2022-11-21T18:49:19.596Z,86.98
2022-11-21T18:51:48.385Z,86.81
2022-11-21T18:54:16.976Z,86.90
2022-11-21T18:56:45.268Z,86.93
2022-11-21T18:59:14.741Z,86.90
2022-11-21T19:01:43.267Z,87.25
2022-11-21T19:04:11.527Z,87.42
2022-11-21T19:06:39.696Z,87.46
2022-11-21T19:09:08.340Z,87.44
2022-11-21T19:11:36.651Z,87.45
2022-11-21T19:14:04.968Z,87.49
2022-11-21T19:16:35.016Z,87.65
2022-11-21T19:21:54.777Z,87.87
2022-11-21T19:24:22.936Z,87.97
2022-11-21T19:26:51.138Z,87.76
2022-11-21T19:29:19.562Z,87.67
2022-11-21T19:31:49.103Z,87.83
2022-11-21T19:34:18.005Z,88.01
2022-11-21T19:36:46.705Z,88.38
2022-11-21T19:39:17.108Z,88.57
2022-11-21T19:41:45.285Z,88.26
2022-11-21T19:44:13.402Z,88.01
2022-11-21T19:46:41.493Z,87.93
2022-11-21T19:49:13.052Z,87.91
2022-11-21T19:51:42.978Z,87.79
2022-11-21T19:54:15.622Z,87.94
2022-11-21T19:56:44.096Z,88.11
2022-11-21T19:59:14.449Z,87.91
2022-11-21T20:01:43.970Z,87.85
2022-11-21T20:04:15.405Z,87.95
2022-11-21T20:06:45.873Z,88.20
2022-11-21T20:09:16.659Z,88.38
2022-11-21T20:11:47.436Z,88.40
2022-11-21T20:14:21.865Z,88.55
2022-11-21T20:16:53.169Z,88.61
2022-11-21T20:19:24.954Z,88.71
2022-11-21T20:21:53.544Z,88.60
2022-11-21T20:24:21.568Z,88.22
2022-11-21T20:26:49.635Z,87.93
2022-11-21T20:29:17.806Z,87.53
2022-11-21T20:31:48.046Z,87.65
2022-11-21T20:34:16.272Z,87.46
2022-11-21T20:36:46.474Z,87.53
2022-11-21T20:39:16.897Z,87.54
2022-11-21T20:41:47.002Z,88.22
2022-11-21T20:47:08.014Z,87.96
2022-11-21T20:49:36.135Z,87.97
2022-11-21T20:54:54.432Z,88.23
2022-11-21T20:57:22.668Z,88.16
2022-11-21T20:59:50.776Z,88.22
2022-11-21T21:02:18.890Z,87.97
2022-11-21T21:04:47.031Z,87.30
2022-11-21T21:07:16.557Z,87.23
2022-11-21T21:09:44.709Z,87.28
2022-11-21T21:12:12.888Z,87.47
2022-11-21T21:14:41.213Z,87.46
2022-11-21T21:17:09.321Z,87.39
2022-11-21T21:19:37.435Z,87.82
2022-11-21T21:22:05.914Z,88.04
2022-11-21T21:24:35.412Z,87.99
2022-11-21T21:27:03.538Z,87.84
2022-11-21T21:29:32.070Z,87.74
2022-11-21T21:32:00.495Z,87.40
2022-11-21T21:34:28.846Z,87.40
2022-11-21T21:36:57.164Z,87.51
2022-11-21T21:39:27.125Z,87.75
2022-11-21T21:41:56.608Z,87.88
2022-11-21T21:44:29.899Z,88.17
2022-11-21T21:46:59.728Z,88.36
2022-11-21T21:49:27.803Z,88.35
2022-11-21T21:51:55.902Z,88.10
2022-11-21T21:54:24.037Z,87.90
2022-11-21T21:56:52.168Z,87.99
2022-11-21T21:59:21.603Z,87.92
2022-11-21T22:01:50.100Z,87.01
2022-11-21T22:04:18.629Z,86.93
2022-11-21T22:06:46.711Z,87.07
2022-11-21T22:09:14.808Z,87.13
2022-11-21T22:11:43.017Z,87.25
2022-11-21T22:14:15.250Z,87.40
2022-11-21T22:16:45.056Z,87.75
2022-11-21T22:19:13.217Z,87.81
2022-11-21T22:21:41.375Z,87.95
2022-11-21T22:24:30.011Z,88.25
2022-11-21T22:26:58.388Z,88.20
2022-11-21T22:29:27.013Z,88.16
2022-11-21T22:31:56.679Z,88.12
2022-11-21T22:34:25.000Z,88.13
2022-11-21T22:36:53.093Z,88.22
2022-11-21T22:39:21.188Z,88.50
2022-11-21T22:41:49.318Z,88.50
2022-11-21T22:44:17.554Z,88.63
2022-11-21T22:46:45.663Z,88.75
2022-11-21T22:49:15.373Z,88.65
2022-11-21T22:51:44.755Z,89.00
2022-11-21T22:54:12.863Z,88.88
2022-11-21T22:56:41.006Z,89.05
2022-11-21T22:59:09.127Z,88.56
2022-11-21T23:01:37.282Z,88.79
2022-11-21T23:04:05.765Z,88.91
2022-11-21T23:06:35.203Z,89.12
2022-11-21T23:09:03.326Z,89.16
2022-11-21T23:11:37.808Z,89.29
2022-11-21T23:14:08.980Z,89.29
2022-11-21T23:16:37.165Z,89.15
2022-11-21T23:19:05.364Z,88.84
2022-11-21T23:21:34.876Z,88.54
2022-11-21T23:24:03.077Z,88.29
2022-11-21T23:26:31.187Z,87.83
2022-11-21T23:29:03.637Z,87.54
2022-11-21T23:31:35.159Z,87.37
2022-11-21T23:34:04.161Z,87.42
2022-11-21T23:36:32.570Z,87.40
2022-11-21T23:39:02.054Z,87.55
2022-11-21T23:41:30.187Z,86.89
2022-11-21T23:43:59.741Z,86.90
2022-11-21T23:46:28.036Z,87.01
2022-11-21T23:48:56.245Z,87.10
2022-11-21T23:51:24.554Z,87.28
2022-11-21T23:53:52.753Z,87.14
2022-11-21T23:56:22.234Z,86.98
2022-11-21T23:58:50.308Z,86.81
